createdAt,value
2018-01-15T00:02:19.193Z,17.45
2018-01-15T00:04:46.874Z,16.00
2018-01-15T00:07:16.753Z,14.20
2018-01-15T00:09:44.426Z,21.50
2018-01-15T00:12:12.042Z,16.00
2018-01-15T00:14:39.785Z,11.50
2018-01-15T00:17:07.492Z,14.45
2018-01-15T00:19:35.170Z,16.98
2018-01-15T00:22:02.863Z,17.75
2018-01-15T00:24:30.575Z,16.42
2018-01-15T00:26:58.290Z,16.35
2018-01-15T00:29:25.995Z,15.60
2018-01-15T00:31:53.666Z,14.98
2018-01-15T00:34:21.357Z,15.77
2018-01-15T00:36:49.057Z,22.02
2018-01-15T00:39:16.765Z,17.35
2018-01-15T00:41:44.432Z,10.43
2018-01-15T00:44:12.125Z,19.02
2018-01-15T00:46:39.794Z,16.37
2018-01-15T00:49:07.442Z,15.50
2018-01-15T00:51:35.117Z,15.18
2018-01-15T00:54:02.853Z,17.20
2018-01-15T00:56:30.531Z,15.73
2018-01-15T00:58:58.237Z,16.87
2018-01-15T01:01:25.912Z,19.17
2018-01-15T01:03:53.615Z,17.37
2018-01-15T01:06:21.310Z,17.12
2018-01-15T01:08:49.039Z,16.40
2018-01-15T01:11:16.720Z,14.07
2018-01-15T01:13:44.432Z,12.20
2018-01-15T01:16:12.121Z,13.38
2018-01-15T01:18:39.821Z,19.12
2018-01-15T01:21:07.549Z,14.00
2018-01-15T01:23:35.345Z,16.30
2018-01-15T01:26:03.036Z,15.00
2018-01-15T01:28:30.757Z,14.35
2018-01-15T01:30:58.442Z,14.68
2018-01-15T01:33:26.153Z,23.10
2018-01-15T01:35:53.838Z,18.52
2018-01-15T01:38:21.546Z,14.63
2018-01-15T01:40:49.261Z,11.25
2018-01-15T01:43:16.957Z,15.20
2018-01-15T01:45:44.698Z,14.90
2018-01-15T01:48:12.429Z,15.50
2018-01-15T01:50:40.117Z,14.13
2018-01-15T01:53:07.811Z,18.33
2018-01-15T01:55:35.481Z,15.38
2018-01-15T01:58:03.189Z,18.83
2018-01-15T02:00:30.873Z,16.15
2018-01-15T02:02:58.594Z,16.23
2018-01-15T02:05:26.259Z,14.20
2018-01-15T02:07:54.041Z,18.10
2018-01-15T02:10:21.726Z,18.67
2018-01-15T02:12:49.481Z,23.12
2018-01-15T02:15:17.158Z,13.35
2018-01-15T02:17:44.857Z,13.48
2018-01-15T02:20:12.521Z,14.95
2018-01-15T02:22:40.255Z,15.32
2018-01-15T02:25:07.913Z,15.90
2018-01-15T02:27:35.614Z,20.50
2018-01-15T02:30:03.204Z,20.43
2018-01-15T02:32:30.909Z,16.75
2018-01-15T02:34:58.586Z,16.98
2018-01-15T02:37:26.290Z,17.75
2018-01-15T02:39:53.966Z,16.62
2018-01-15T02:42:21.698Z,15.60
2018-01-15T02:44:49.378Z,16.27
2018-01-15T02:47:17.126Z,18.92
2018-01-15T02:49:44.794Z,14.32
2018-01-15T02:52:12.525Z,14.65
2018-01-15T02:54:40.218Z,26.33
2018-01-15T02:57:07.843Z,17.73
2018-01-15T02:59:35.530Z,17.12
2018-01-15T03:02:03.226Z,21.48
2018-01-15T03:04:30.890Z,17.73
2018-01-15T03:06:58.529Z,15.73
2018-01-15T03:09:26.221Z,15.35
2018-01-15T03:11:53.842Z,15.53
2018-01-15T03:14:21.537Z,17.58
2018-01-15T03:16:49.297Z,18.95
2018-01-15T03:19:16.985Z,20.08
2018-01-15T03:21:44.690Z,15.80
2018-01-15T03:24:12.361Z,18.12
2018-01-15T03:26:40.078Z,16.62
2018-01-15T03:29:07.788Z,13.23
2018-01-15T03:31:35.530Z,17.12
2018-01-15T03:34:03.194Z,16.98
2018-01-15T03:36:30.893Z,18.67
2018-01-15T03:38:58.597Z,15.75
2018-01-15T03:41:26.304Z,15.18
2018-01-15T03:43:53.981Z,15.32
2018-01-15T03:46:21.603Z,16.30
2018-01-15T03:48:49.293Z,18.87
2018-01-15T03:51:16.916Z,14.57
2018-01-15T03:53:44.617Z,17.67
2018-01-15T03:56:12.286Z,14.23
2018-01-15T03:58:39.957Z,18.48
2018-01-15T04:01:07.677Z,15.55
2018-01-15T04:03:35.378Z,11.23
2018-01-15T04:06:03.066Z,16.40
2018-01-15T04:08:30.685Z,19.03
2018-01-15T04:10:58.292Z,16.37
2018-01-15T04:13:25.982Z,14.27
2018-01-15T04:15:53.622Z,12.07
2018-01-15T04:18:21.305Z,15.63
2018-01-15T04:20:48.958Z,11.83
2018-01-15T04:23:16.642Z,20.98
2018-01-15T04:25:44.354Z,15.20
2018-01-15T04:28:11.941Z,18.43
2018-01-15T04:30:39.561Z,13.10
2018-01-15T04:33:07.166Z,13.57
2018-01-15T04:35:34.786Z,24.87
2018-01-15T04:38:02.369Z,17.00
2018-01-15T04:40:30.012Z,14.70
2018-01-15T04:42:57.603Z,10.63
2018-01-15T04:45:25.218Z,14.53
2018-01-15T04:47:52.814Z,17.00
2018-01-15T04:50:20.431Z,18.90
2018-01-15T04:52:48.023Z,16.70
2018-01-15T04:55:15.753Z,15.35
2018-01-15T04:57:43.360Z,20.17
2018-01-15T05:00:11.030Z,18.05
2018-01-15T05:02:38.655Z,21.00
2018-01-15T05:05:06.254Z,16.60
2018-01-15T05:07:34.010Z,12.50
2018-01-15T05:10:01.688Z,17.15
2018-01-15T05:12:29.386Z,23.95
2018-01-15T05:14:56.985Z,21.97
2018-01-15T05:17:24.605Z,16.40
2018-01-15T05:19:52.211Z,18.20
2018-01-15T05:22:19.906Z,16.30
2018-01-15T05:24:47.571Z,16.35
2018-01-15T05:27:15.197Z,15.10
2018-01-15T05:29:42.858Z,15.55
2018-01-15T05:32:10.515Z,12.17
2018-01-15T05:34:38.130Z,20.50
2018-01-15T05:37:05.759Z,17.80
2018-01-15T05:39:33.434Z,15.33
2018-01-15T05:42:01.122Z,12.52
2018-01-15T05:44:28.800Z,24.67
2018-01-15T05:46:56.430Z,16.90
2018-01-15T05:49:24.097Z,21.35
2018-01-15T05:51:51.794Z,21.40
2018-01-15T05:54:19.461Z,16.98
2018-01-15T05:56:47.203Z,18.45
2018-01-15T05:59:14.894Z,26.20
2018-01-15T06:01:42.513Z,19.43
2018-01-15T06:04:10.242Z,17.05
2018-01-15T06:06:37.941Z,17.27
2018-01-15T06:09:05.534Z,17.07
2018-01-15T06:11:33.255Z,21.60
2018-01-15T06:14:00.934Z,23.58
2018-01-15T06:16:28.629Z,14.98
2018-01-15T06:18:56.221Z,16.20
2018-01-15T06:21:23.965Z,18.65
2018-01-15T06:23:51.637Z,19.40
2018-01-15T06:26:19.412Z,22.30
2018-01-15T06:28:47.113Z,20.00
2018-01-15T06:31:14.737Z,22.10
2018-01-15T06:33:42.421Z,16.75
2018-01-15T06:36:10.145Z,18.87
2018-01-15T06:38:37.833Z,18.00
2018-01-15T06:41:05.581Z,21.10
2018-01-15T06:43:33.259Z,17.48
2018-01-15T06:46:00.961Z,18.55
2018-01-15T06:48:28.641Z,15.93
2018-01-15T06:50:56.326Z,22.73
2018-01-15T06:53:24.054Z,17.87
2018-01-15T06:55:51.767Z,15.90
2018-01-15T06:58:19.435Z,18.48
2018-01-15T07:00:47.133Z,20.20
2018-01-15T07:03:14.761Z,24.50
2018-01-15T07:05:42.461Z,21.87
2018-01-15T07:08:10.148Z,23.15
2018-01-15T07:10:37.865Z,22.00
2018-01-15T07:13:05.463Z,14.60
2018-01-15T07:15:33.162Z,19.70
2018-01-15T07:18:00.808Z,22.30
2018-01-15T07:20:28.509Z,21.10
2018-01-15T07:22:56.101Z,15.87
2018-01-15T07:25:23.726Z,24.73
2018-01-15T07:27:51.308Z,20.47
2018-01-15T07:30:18.918Z,22.23
2018-01-15T07:32:46.618Z,21.67
2018-01-15T07:35:14.312Z,19.70
2018-01-15T07:37:41.982Z,14.48
2018-01-15T07:40:09.626Z,19.23
2018-01-15T07:42:37.225Z,20.23
2018-01-15T07:45:04.917Z,19.85
2018-01-15T07:47:32.514Z,17.47
2018-01-15T07:50:00.204Z,18.92
2018-01-15T07:52:27.925Z,18.15
2018-01-15T07:54:56.081Z,24.23
2018-01-15T07:57:23.750Z,25.75
2018-01-15T07:59:51.369Z,15.47
2018-01-15T08:02:18.985Z,22.47
2018-01-15T08:04:46.614Z,24.17
2018-01-15T08:07:14.281Z,20.00
2018-01-15T08:09:41.920Z,21.50
2018-01-15T08:12:09.562Z,17.83
2018-01-15T08:14:37.198Z,19.97
2018-01-15T08:17:04.861Z,21.42
2018-01-15T08:19:32.554Z,19.25
2018-01-15T08:22:00.211Z,15.87
2018-01-15T08:24:27.878Z,17.00
2018-01-15T08:26:55.473Z,19.23
2018-01-15T08:29:23.098Z,19.10
2018-01-15T08:31:50.777Z,18.12
2018-01-15T08:34:18.374Z,22.63
2018-01-15T08:36:46.018Z,18.50
2018-01-15T08:39:13.617Z,17.60
2018-01-15T08:41:41.251Z,20.33
2018-01-15T08:44:08.842Z,18.97
2018-01-15T08:46:36.461Z,18.40
2018-01-15T08:49:04.076Z,17.10
2018-01-15T08:51:31.726Z,18.60
2018-01-15T08:53:59.400Z,17.57
2018-01-15T08:56:27.021Z,21.30
2018-01-15T08:58:54.661Z,17.97
2018-01-15T09:01:22.257Z,18.63
2018-01-15T09:03:49.943Z,15.13
2018-01-15T09:06:17.537Z,21.57
2018-01-15T09:08:45.178Z,17.07
2018-01-15T09:11:12.770Z,19.20
2018-01-15T09:13:40.391Z,20.43
2018-01-15T09:16:08.007Z,16.10
2018-01-15T09:18:35.638Z,18.63
2018-01-15T09:21:03.237Z,15.40
2018-01-15T09:23:30.936Z,21.43
2018-01-15T09:25:58.562Z,15.50
2018-01-15T09:28:26.173Z,24.63
2018-01-15T09:30:53.766Z,14.33
2018-01-15T09:33:21.467Z,20.67
2018-01-15T09:35:49.056Z,17.03
2018-01-15T09:38:16.691Z,16.97
2018-01-15T09:40:44.283Z,20.63
2018-01-15T09:43:11.988Z,16.77
2018-01-15T09:45:39.616Z,17.47
2018-01-15T09:48:07.242Z,19.50
2018-01-15T09:50:34.870Z,15.37
2018-01-15T09:53:02.506Z,18.67
2018-01-15T09:55:30.130Z,19.07
2018-01-15T09:57:57.847Z,17.07
2018-01-15T10:00:25.445Z,15.37
2018-01-15T10:02:53.077Z,16.50
2018-01-15T10:05:20.674Z,20.03
2018-01-15T10:07:48.314Z,16.77
2018-01-15T10:10:15.911Z,19.73
2018-01-15T10:12:43.541Z,14.40
2018-01-15T10:15:11.130Z,17.70
2018-01-15T10:17:38.752Z,19.47
2018-01-15T10:20:06.373Z,17.03
2018-01-15T10:22:34.002Z,18.60
2018-01-15T10:25:01.633Z,16.60
2018-01-15T10:27:29.257Z,16.97
2018-01-15T10:29:56.853Z,16.57
2018-01-15T10:32:24.484Z,23.60
2018-01-15T10:34:52.130Z,19.57
2018-01-15T10:37:19.765Z,18.27
2018-01-15T10:39:47.350Z,21.03
2018-01-15T10:42:14.974Z,19.80
2018-01-15T10:44:42.572Z,18.70
2018-01-15T10:47:10.194Z,18.73
2018-01-15T10:49:37.786Z,16.80
2018-01-15T10:52:05.473Z,19.30
2018-01-15T10:54:33.081Z,15.90
2018-01-15T10:57:00.697Z,21.37
2018-01-15T10:59:29.833Z,29.93
2018-01-15T11:01:57.613Z,15.70
2018-01-15T11:04:25.207Z,16.57
2018-01-15T11:06:52.845Z,20.63
2018-01-15T11:09:20.430Z,17.97
2018-01-15T11:11:48.097Z,20.17
2018-01-15T11:14:15.725Z,20.93
2018-01-15T11:16:43.302Z,16.13
2018-01-15T11:19:10.894Z,19.73
2018-01-15T11:21:38.521Z,22.60
2018-01-15T11:24:06.102Z,11.80
2018-01-15T11:26:33.726Z,17.90
2018-01-15T11:29:01.329Z,15.33
2018-01-15T11:31:28.954Z,18.90
2018-01-15T11:33:56.552Z,13.63
2018-01-15T11:36:24.193Z,20.70
2018-01-15T11:38:51.799Z,14.63
2018-01-15T11:41:19.418Z,16.20
2018-01-15T11:43:47.007Z,16.53
2018-01-15T11:46:14.601Z,14.63
2018-01-15T11:48:42.239Z,18.00
2018-01-15T11:51:09.965Z,12.63
2018-01-15T11:53:37.612Z,21.00
2018-01-15T11:56:05.234Z,20.20
2018-01-15T11:58:32.817Z,14.33
2018-01-15T12:01:00.434Z,14.03
2018-01-15T12:03:28.133Z,19.07
2018-01-15T12:05:55.759Z,14.37
2018-01-15T12:08:23.344Z,14.23
2018-01-15T12:10:50.988Z,15.63
2018-01-15T12:13:18.577Z,16.83
2018-01-15T12:15:46.203Z,16.57
2018-01-15T12:18:13.815Z,19.13
2018-01-15T12:20:41.432Z,14.97
2018-01-15T12:23:09.026Z,16.90
2018-01-15T12:25:36.652Z,16.37
2018-01-15T12:28:04.242Z,13.60
2018-01-15T12:30:31.888Z,15.97
2018-01-15T12:32:59.477Z,14.77
2018-01-15T12:35:27.116Z,17.53
2018-01-15T12:37:54.725Z,14.37
2018-01-15T12:40:22.330Z,19.47
2018-01-15T12:42:50.106Z,14.43
2018-01-15T12:45:17.744Z,14.60
2018-01-15T12:47:45.317Z,16.80
2018-01-15T12:50:12.922Z,13.10
2018-01-15T12:52:40.561Z,17.40
2018-01-15T12:55:08.183Z,15.90
2018-01-15T12:57:35.781Z,11.50
2018-01-15T13:00:03.420Z,18.50
2018-01-15T13:02:30.997Z,9.77
2018-01-15T13:04:58.605Z,12.67
2018-01-15T13:07:37.837Z,12.10
2018-01-15T13:10:05.456Z,13.77
2018-01-15T13:12:33.058Z,10.33
2018-01-15T13:15:00.678Z,12.10
2018-01-15T13:17:28.252Z,11.50
2018-01-15T13:19:55.941Z,11.77
2018-01-15T13:22:23.530Z,14.57
2018-01-15T13:24:51.161Z,9.33
2018-01-15T13:27:18.798Z,9.73
2018-01-15T13:29:46.417Z,14.93
2018-01-15T13:32:14.010Z,9.27
2018-01-15T13:34:41.644Z,8.00
2018-01-15T13:37:09.209Z,8.60
2018-01-15T13:39:36.881Z,11.03
2018-01-15T13:42:04.485Z,5.60
2018-01-15T13:44:32.134Z,6.33
2018-01-15T13:46:59.684Z,8.50
2018-01-15T13:49:27.395Z,6.77
2018-01-15T13:51:54.982Z,9.83
2018-01-15T13:54:22.599Z,11.60
2018-01-15T13:56:50.178Z,7.30
2018-01-15T13:59:17.803Z,7.13
2018-01-15T14:01:45.403Z,7.30
2018-01-15T14:04:13.021Z,6.57
2018-01-15T14:06:40.621Z,6.33
2018-01-15T14:09:08.257Z,6.67
2018-01-15T14:11:35.927Z,6.07
2018-01-15T14:14:03.518Z,8.67
2018-01-15T14:16:31.121Z,5.50
2018-01-15T14:18:58.747Z,6.57
2018-01-15T14:21:26.337Z,6.80
2018-01-15T14:23:53.940Z,8.73
2018-01-15T14:26:21.525Z,5.33
2018-01-15T14:28:49.134Z,7.17
2018-01-15T14:31:16.710Z,7.70
2018-01-15T14:33:44.321Z,30.10
2018-01-15T14:36:11.941Z,5.77
2018-01-15T14:38:39.560Z,5.67
2018-01-15T14:41:07.137Z,7.97
2018-01-15T14:43:34.762Z,7.03
2018-01-15T14:46:02.354Z,13.17
2018-01-15T14:48:30.028Z,5.87
2018-01-15T14:50:57.673Z,7.03
2018-01-15T14:53:25.322Z,9.30
2018-01-15T14:55:52.928Z,6.60
2018-01-15T14:58:20.535Z,5.97
2018-01-15T15:00:48.121Z,8.23
2018-01-15T15:03:15.815Z,6.23
2018-01-15T15:05:43.382Z,7.33
2018-01-15T15:08:11.006Z,6.03
2018-01-15T15:10:38.610Z,6.90
2018-01-15T15:13:06.225Z,9.20
2018-01-15T15:15:33.814Z,8.90
2018-01-15T15:18:01.526Z,6.20
2018-01-15T15:20:29.148Z,5.43
2018-01-15T15:22:56.777Z,4.80
2018-01-15T15:25:24.352Z,5.07
2018-01-15T15:27:51.984Z,6.20
2018-01-15T15:30:19.610Z,11.20
2018-01-15T15:32:47.295Z,7.77
2018-01-15T15:35:14.885Z,4.23
2018-01-15T15:37:42.509Z,4.90
2018-01-15T15:40:10.105Z,4.97
2018-01-15T15:42:37.735Z,5.33
2018-01-15T15:45:05.463Z,3.87
2018-01-15T15:47:33.035Z,3.03
2018-01-15T15:50:00.626Z,3.23
2018-01-15T15:52:28.235Z,4.37
2018-01-15T15:54:55.845Z,4.13
2018-01-15T15:57:23.452Z,2.27
2018-01-15T15:59:51.064Z,6.63
2018-01-15T16:02:18.695Z,5.07
2018-01-15T16:04:46.295Z,3.03
2018-01-15T16:07:14.747Z,3.57
2018-01-15T16:09:42.342Z,3.20
2018-01-15T16:12:09.954Z,4.73
2018-01-15T16:14:37.576Z,4.50
2018-01-15T16:17:05.215Z,3.73
2018-01-15T16:19:32.957Z,3.17
2018-01-15T16:22:12.248Z,3.20
2018-01-15T16:24:39.883Z,3.33
2018-01-15T16:27:07.494Z,2.20
2018-01-15T16:29:35.079Z,3.33
2018-01-15T16:32:02.699Z,3.23
2018-01-15T16:34:30.326Z,2.80
2018-01-15T16:36:57.948Z,2.77
2018-01-15T16:39:25.630Z,6.30
2018-01-15T16:41:53.293Z,2.40
2018-01-15T16:44:20.886Z,2.47
2018-01-15T16:46:48.506Z,3.40
2018-01-15T16:49:16.116Z,2.53
2018-01-15T16:51:43.837Z,2.60
2018-01-15T16:54:11.421Z,3.53
2018-01-15T16:56:39.119Z,2.73
2018-01-15T16:59:06.697Z,2.70
2018-01-15T17:01:34.281Z,7.30
2018-01-15T17:04:01.913Z,2.90
2018-01-15T17:06:29.510Z,2.40
2018-01-15T17:08:57.110Z,2.90
2018-01-15T17:11:24.686Z,2.50
2018-01-15T17:13:52.324Z,3.27
2018-01-15T17:16:19.909Z,3.60
2018-01-15T17:18:47.541Z,2.10
2018-01-15T17:21:15.120Z,10.67
2018-01-15T17:23:42.758Z,1.90
2018-01-15T17:26:10.364Z,1.20
2018-01-15T17:28:38.070Z,1.97
2018-01-15T17:31:05.645Z,3.00
2018-01-15T17:33:33.241Z,3.47
2018-01-15T17:36:00.830Z,3.03
2018-01-15T17:38:28.745Z,2.60
2018-01-15T17:40:56.367Z,3.27
2018-01-15T17:43:24.002Z,2.80
2018-01-15T17:45:51.597Z,1.53
2018-01-15T17:48:19.218Z,2.73
2018-01-15T17:50:46.853Z,2.60
2018-01-15T17:53:14.592Z,1.17
2018-01-15T17:55:42.173Z,2.30
2018-01-15T17:58:09.782Z,2.00
2018-01-15T18:00:37.454Z,4.47
2018-01-15T18:03:05.079Z,1.37
2018-01-15T18:05:32.666Z,1.60
2018-01-15T18:08:00.358Z,1.73
2018-01-15T18:10:27.923Z,1.60
2018-01-15T18:12:55.529Z,1.87
2018-01-15T18:15:23.119Z,1.47
2018-01-15T18:17:50.708Z,1.97
2018-01-15T18:20:18.296Z,1.20
2018-01-15T18:22:45.905Z,1.20
2018-01-15T18:25:13.506Z,1.70
2018-01-15T18:27:41.139Z,7.60
2018-01-15T18:30:08.727Z,2.63
2018-01-15T18:32:36.403Z,1.23
2018-01-15T18:35:03.974Z,1.00
2018-01-15T18:37:31.587Z,1.37
2018-01-15T18:39:59.194Z,0.93
2018-01-15T18:42:26.832Z,0.80
2018-01-15T18:44:54.413Z,0.80
2018-01-15T18:47:22.046Z,0.90
2018-01-15T18:49:49.697Z,0.73
2018-01-15T18:52:17.337Z,1.10
2018-01-15T18:54:44.996Z,2.93
2018-01-15T18:57:12.620Z,1.10
2018-01-15T18:59:40.212Z,0.93
2018-01-15T19:02:07.932Z,1.10
2018-01-15T19:04:35.538Z,1.90
2018-01-15T19:07:03.151Z,0.90
2018-01-15T19:09:30.753Z,2.40
2018-01-15T19:11:58.389Z,0.90
2018-01-15T19:14:26.010Z,0.80
2018-01-15T19:16:53.702Z,0.60
2018-01-15T19:19:21.397Z,1.53
2018-01-15T19:21:49.024Z,0.80
2018-01-15T19:24:16.611Z,1.07
2018-01-15T19:26:44.251Z,1.20
2018-01-15T19:29:11.880Z,0.90
2018-01-15T19:31:39.510Z,3.43
2018-01-15T19:34:07.102Z,0.70
2018-01-15T19:36:38.586Z,0.70
2018-01-15T19:39:06.246Z,1.00
2018-01-15T19:41:35.561Z,0.77
2018-01-15T19:44:08.521Z,2.00
2018-01-15T19:46:41.597Z,0.70
2018-01-15T19:49:14.662Z,1.00
2018-01-15T19:51:47.733Z,0.83
2018-01-15T19:54:20.870Z,2.73
2018-01-15T19:56:53.956Z,1.17
2018-01-15T19:59:27.322Z,2.50
2018-01-15T20:05:00.651Z,1.10
2018-01-15T20:07:34.055Z,0.80
2018-01-15T20:10:07.137Z,0.80
2018-01-15T20:12:34.749Z,1.10
2018-01-15T20:15:02.415Z,0.80
2018-01-15T20:17:30.024Z,1.57
2018-01-15T20:19:57.856Z,0.90
2018-01-15T20:22:25.446Z,1.00
2018-01-15T20:24:53.191Z,1.03
2018-01-15T20:27:20.770Z,0.70
2018-01-15T20:29:48.562Z,0.60
2018-01-15T20:32:16.187Z,1.13
2018-01-15T20:34:43.822Z,0.90
2018-01-15T20:37:11.426Z,0.80
2018-01-15T20:39:39.079Z,0.70
2018-01-15T20:42:06.702Z,0.70
2018-01-15T20:44:34.456Z,1.07
2018-01-15T20:47:02.042Z,1.00
2018-01-15T20:49:29.662Z,0.80
2018-01-15T20:51:57.246Z,8.00
2018-01-15T20:54:24.868Z,0.67
2018-01-15T20:56:52.466Z,0.73
2018-01-15T20:59:20.096Z,0.90
2018-01-15T21:01:47.724Z,0.60
2018-01-15T21:04:15.310Z,0.70
2018-01-15T21:06:42.946Z,0.70
2018-01-15T21:09:10.554Z,1.20
2018-01-15T21:11:38.235Z,0.67
2018-01-15T21:14:05.838Z,0.60
2018-01-15T21:16:33.473Z,1.37
2018-01-15T21:19:01.102Z,1.10
2018-01-15T21:21:28.734Z,0.60
2018-01-15T21:23:56.370Z,0.60
2018-01-15T21:26:23.976Z,1.03
2018-01-15T21:28:51.607Z,0.90
2018-01-15T21:31:19.249Z,1.53
2018-01-15T21:33:46.880Z,0.70
2018-01-15T21:36:14.589Z,1.10
2018-01-15T21:38:42.220Z,0.93
2018-01-15T21:41:09.823Z,0.73
2018-01-15T21:43:37.484Z,1.03
2018-01-15T21:46:05.075Z,2.63
2018-01-15T21:48:32.703Z,1.93
2018-01-15T21:51:00.339Z,1.90
2018-01-15T21:53:27.976Z,2.13
2018-01-15T21:55:55.588Z,8.13
2018-01-15T21:58:23.221Z,1.60
2018-01-15T22:00:50.970Z,1.43
2018-01-15T22:03:18.597Z,1.00
2018-01-15T22:05:46.189Z,1.87
2018-01-15T22:08:13.769Z,2.30
2018-01-15T22:10:41.374Z,1.37
2018-01-15T22:13:09.158Z,0.80
2018-01-15T22:15:36.743Z,1.47
2018-01-15T22:18:04.415Z,1.07
2018-01-15T22:20:32.024Z,2.27
2018-01-15T22:22:59.657Z,1.07
2018-01-15T22:25:27.253Z,2.80
2018-01-15T22:27:54.858Z,0.80
2018-01-15T22:30:22.474Z,1.90
2018-01-15T22:32:50.077Z,1.83
2018-01-15T22:35:17.673Z,1.40
2018-01-15T22:37:45.459Z,0.90
2018-01-15T22:40:13.050Z,0.80
2018-01-15T22:42:40.652Z,1.70
2018-01-15T22:45:08.241Z,1.37
2018-01-15T22:47:35.851Z,0.80
2018-01-15T22:50:03.450Z,1.10
2018-01-15T22:52:31.091Z,0.90
2018-01-15T22:54:58.721Z,1.63
2018-01-15T22:57:26.321Z,1.27
2018-01-15T22:59:53.982Z,0.87
2018-01-15T23:02:21.605Z,2.53
2018-01-15T23:04:49.194Z,1.23
2018-01-15T23:07:16.819Z,3.13
2018-01-15T23:09:44.439Z,1.40
2018-01-15T23:12:12.077Z,2.40
2018-01-15T23:14:39.698Z,1.30
2018-01-15T23:17:07.406Z,1.63
2018-01-15T23:19:35.005Z,1.27
2018-01-15T23:22:02.626Z,6.53
2018-01-15T23:24:30.216Z,3.03
2018-01-15T23:26:57.850Z,1.63
2018-01-15T23:29:25.428Z,1.57
2018-01-15T23:31:53.069Z,1.23
2018-01-15T23:34:20.671Z,2.33
2018-01-15T23:36:48.334Z,1.00
2018-01-15T23:39:15.921Z,1.73
2018-01-15T23:41:43.539Z,1.87
2018-01-15T23:44:11.126Z,2.00
2018-01-15T23:46:38.742Z,2.17
2018-01-15T23:49:06.386Z,1.67
2018-01-15T23:51:34.006Z,2.40
2018-01-15T23:54:01.598Z,2.40
2018-01-15T23:56:29.327Z,1.30
2018-01-15T23:58:56.937Z,1.47
